Terminal Aerodrome Forecast
Issued by NWS Denver/Boulder, CO

Home | Current Version | Previous Version | Text Only | Print | Product List | Glossary On
Versions: 1 2 3 4 5 6 7 8 9 10 11 12 13 14 15 16 17 18 19 20 21 22 23 24 25 26 27 28 29 30 31 32 33 34 35 36 37 38 39 40 41 42 43 44 45 46 47 48 49 50
000
FTUS45 KBOU 281955 AAC
TAFDEN
TAF AMD
KDEN 281955Z 2820/2924 10012KT P6SM VCSH BKN016 OVC025
     FM290100 11011KT 6SM -SHRA BR BKN012 OVC025
     FM290300 08008KT 3SM -RASN BR BKN010 OVC015
      TEMPO 2905/2908 1 1/2SM -SN BR OVC009
     FM290800 05011KT 1SM -SN BR BKN005 OVC009
     FM291400 02010KT 1/2SM SN FG OVC004
     FM291800 01012KT 1 1/2SM -SNRA BR OVC010
     FM292300 03013G18KT 2SM -SN BR OVC014=

USA.gov is the U.S. government's official web portal to all federal, state and local government web resources and services.